メインページ
METAR-TAF:

METAR-TAF

空港 :

フロリアノーポリス, サンタカタリーナ州, ブラジル

緯度: 27-40S, 経度: 048-33W, 海抜: 5m

現時点の気象観測

当レポートは16分前の06:00(UTC)に作成
西/南西の風 6kt
気温 22°C
湿度 78%
気圧 1017 hPa
視程10km以上
高度2000ftの雲は散在している

METAR: SBFL 280600Z 25006KT 9999 SCT020 22/18 Q1017

時間: 03:16 (06:16 UTC)

予報

当レポートは3時間16分前の03:00(UTC)に作成
予報は28日の 06時(UTC)から 29日の 06時(UTC)まで有効
の風 8kt
視程10km以上
高度2000ftの千切れ雲あり
高度4000ftの千切れ雲あり
確率 40% :
28日の 06時(UTC)から 28日の 16時(UTC)まで一時的に
視程: 6000m
高度1200ftの千切れ雲あり
高度2000ftの千切れ雲あり
28日の 16時(UTC)から 28日の 18時(UTC)まで徐々に
南/南東の風 8kt
高度3000ftの雲は散在している

TAF: SBFL 280300Z 2806/2906 18008KT 9999 BKN020 BKN040 TN20/2809Z TX25 /2818Z PROB40 TEMPO 2806/2816 6000 RA BKN012 BKN020 BECMG 2816/2818 16008KT SCT030 RMK PDJ

4,000以上の空港の気象観測と天気予報(METAR報とTAF報)

利用可能な観測所は地図上に黄色い丸と赤い丸で示す。

丸の上にカーソルを重ねると観測所名を参照できる。

次にクリックすると気象観測と天気予報を参照できる。

マップの切り替え:黒色「×」印の緑ボタンをクリックして拡大、「-」印の緑ボタンをクリックして縮小、緑色の三角印をクリックして隣りの地図に切り替え


METAR-TAF: